Time;durP1;ratioP1;P1;durP2;ratioP2;P2;SDS_P1;SDS_P2;PMS_P1;PMS_P2;Temp;Humidity;BMP_temperature;BMP_pressure;BME280_temperature;BME280_humidity;BME280_pressure;Samples;Min_cycle;Max_cycle;Signal;HPM_P1;HPM_P2
2021/07/04 00:00:46;;;;;;;5.93;4.95;;;18.30;99.90;;;;;;5040970;28;20025;-92
2021/07/04 00:03:12;;;;;;;7.75;6.68;;;18.20;99.90;;;;;;5058866;28;20485;-92
2021/07/04 00:05:47;;;;;;;8.90;6.78;;;18.20;99.90;;;;;;5058899;28;20135;-91
2021/07/04 00:08:16;;;;;;;8.05;7.18;;;18.20;99.90;;;;;;5041039;28;20033;-90
2021/07/04 00:11:01;;;;;;;10.73;7.32;;;18.10;99.90;;;;;;5024218;28;20036;-91
2021/07/04 00:13:32;;;;;;;8.95;6.75;;;18.10;99.90;;;;;;5037423;28;20124;-92
2021/07/04 00:15:59;;;;;;;7.20;6.05;;;18.10;99.90;;;;;;5067180;28;20037;-91
2021/07/04 00:18:27;;;;;;;7.30;6.38;;;18.10;99.90;;;;;;5066442;28;20033;-91
2021/07/04 00:20:54;;;;;;;7.95;5.97;;;18.10;99.90;;;;;;5057989;28;20021;-90
2021/07/04 00:23:21;;;;;;;8.23;5.75;;;18.10;99.90;;;;;;5057307;28;20143;-90
2021/07/04 00:25:48;;;;;;;7.70;6.05;;;18.10;99.90;;;;;;5057494;28;20045;-89
2021/07/04 00:28:14;;;;;;;7.03;5.60;;;18.10;99.90;;;;;;5057590;28;20125;-89
2021/07/04 00:30:40;;;;;;;6.97;5.63;;;18.00;99.90;;;;;;5057291;28;20123;-89
2021/07/04 00:33:07;;;;;;;6.45;5.38;;;18.00;99.90;;;;;;5039522;28;20029;-89
2021/07/04 00:35:34;;;;;;;5.32;4.05;;;18.00;99.90;;;;;;5039651;28;20067;-90
2021/07/04 00:38:06;;;;;;;6.72;5.07;;;17.90;99.90;;;;;;5039667;28;20037;-90
2021/07/04 00:40:32;;;;;;;6.95;4.88;;;17.90;99.90;;;;;;5039452;28;20025;-89
2021/07/04 00:42:58;;;;;;;5.63;4.20;;;17.90;99.90;;;;;;5022904;28;20115;-89
2021/07/04 00:45:25;;;;;;;5.50;4.18;;;17.90;99.90;;;;;;5057068;28;20060;-90
2021/07/04 00:47:52;;;;;;;5.93;4.57;;;17.90;99.90;;;;;;5057194;28;20036;-89
2021/07/04 00:50:19;;;;;;;4.85;3.83;;;17.90;99.90;;;;;;5039302;28;20025;-90
2021/07/04 00:52:45;;;;;;;6.00;4.00;;;17.90;99.90;;;;;;5057107;28;20025;-90
2021/07/04 00:55:17;;;;;;;5.03;3.80;;;17.90;99.90;;;;;;5039680;28;20057;-90
2021/07/04 00:57:44;;;;;;;5.35;3.78;;;17.90;99.90;;;;;;5080372;28;20009;-89
2021/07/04 01:00:14;;;;;;;5.25;3.60;;;17.90;99.90;;;;;;5062275;28;20029;-90
2021/07/04 01:02:40;;;;;;;6.70;3.95;;;17.90;99.90;;;;;;5040939;28;20029;-90
2021/07/04 01:05:15;;;;;;;6.35;4.03;;;17.90;99.90;;;;;;5058135;28;20384;-89
2021/07/04 01:07:45;;;;;;;5.70;4.00;;;17.90;99.90;;;;;;5057187;28;20029;-91
2021/07/04 01:10:14;;;;;;;4.93;3.53;;;17.90;99.90;;;;;;5038285;28;20048;-91
2021/07/04 01:12:41;;;;;;;5.10;4.07;;;18.00;99.90;;;;;;5039254;28;20112;-90
2021/07/04 01:15:08;;;;;;;4.88;4.00;;;18.00;99.90;;;;;;5057048;28;20128;-90
2021/07/04 01:17:37;;;;;;;6.07;3.90;;;17.90;99.90;;;;;;5038509;28;20495;-90
2021/07/04 01:20:05;;;;;;;5.88;4.50;;;18.00;99.90;;;;;;5039487;28;20025;-91
2021/07/04 01:22:33;;;;;;;6.18;4.03;;;18.00;99.90;;;;;;5039072;28;20079;-90
2021/07/04 01:24:59;;;;;;;4.38;3.80;;;18.00;99.90;;;;;;5040113;28;20079;-91
2021/07/04 01:27:25;;;;;;;5.65;4.05;;;18.00;99.90;;;;;;5057537;28;20029;-91
2021/07/04 01:29:50;;;;;;;4.57;3.67;;;17.90;99.90;;;;;;5040040;28;20033;-90
2021/07/04 01:32:16;;;;;;;5.00;3.88;;;18.00;99.90;;;;;;5057067;28;20021;-91
2021/07/04 01:34:42;;;;;;;6.13;4.00;;;18.00;99.90;;;;;;5039397;28;20023;-89
2021/07/04 01:37:07;;;;;;;6.75;4.53;;;17.90;99.90;;;;;;5038965;28;20024;-89
2021/07/04 01:39:33;;;;;;;6.18;4.90;;;17.90;99.90;;;;;;5056818;28;20052;-90
2021/07/04 01:41:58;;;;;;;5.78;4.13;;;17.90;99.90;;;;;;5038712;28;20072;-89
2021/07/04 01:44:24;;;;;;;6.88;4.40;;;17.90;99.90;;;;;;5039081;28;20082;-91
2021/07/04 01:46:50;;;;;;;5.50;4.43;;;18.00;99.90;;;;;;5057048;28;20017;-91
2021/07/04 01:49:15;;;;;;;7.20;4.82;;;17.90;99.90;;;;;;5038804;28;20112;-91
2021/07/04 01:51:41;;;;;;;6.53;4.28;;;18.00;99.90;;;;;;5022869;28;20115;-91
2021/07/04 01:54:07;;;;;;;5.63;4.40;;;18.00;99.90;;;;;;5038937;28;20407;-90
2021/07/04 01:56:32;;;;;;;5.40;4.45;;;18.00;99.90;;;;;;5056607;28;20029;-90
2021/07/04 01:58:58;;;;;;;5.93;4.18;;;18.00;99.90;;;;;;5038762;28;20488;-90
2021/07/04 02:01:24;;;;;;;5.30;4.05;;;18.00;99.90;;;;;;5057150;28;20044;-91
2021/07/04 02:03:52;;;;;;;4.88;3.80;;;18.00;99.90;;;;;;5056878;28;20029;-91
2021/07/04 02:06:18;;;;;;;5.28;3.85;;;18.00;99.90;;;;;;5039301;28;20056;-91
2021/07/04 02:08:45;;;;;;;5.38;4.20;;;18.00;99.90;;;;;;5056717;28;20405;-91
2021/07/04 02:11:10;;;;;;;6.55;4.10;;;18.00;99.90;;;;;;5038323;28;20056;-90
2021/07/04 02:13:36;;;;;;;5.38;4.00;;;18.00;99.90;;;;;;5021795;28;20032;-91
2021/07/04 02:16:03;;;;;;;5.20;4.03;;;18.00;99.90;;;;;;5035679;28;20050;-91
2021/07/04 02:18:28;;;;;;;5.22;4.15;;;18.10;99.90;;;;;;5036451;28;20110;-91
2021/07/04 02:20:55;;;;;;;5.00;3.85;;;18.10;99.90;;;;;;5045594;28;20049;-92
2021/07/04 02:23:30;;;;;;;4.70;4.00;;;18.10;99.90;;;;;;5042833;28;20032;-91
2021/07/04 02:25:57;;;;;;;4.65;3.75;;;18.10;99.90;;;;;;5019508;28;20083;-91
2021/07/04 02:28:25;;;;;;;5.38;4.07;;;18.10;99.90;;;;;;5035279;28;20043;-91
2021/07/04 02:30:53;;;;;;;5.30;3.63;;;18.10;99.90;;;;;;5036830;28;20033;-91
2021/07/04 02:33:20;;;;;;;4.97;3.58;;;18.10;99.90;;;;;;5036604;28;20018;-91
2021/07/04 02:35:54;;;;;;;4.65;3.80;;;18.10;99.90;;;;;;5034625;28;20029;-91
2021/07/04 02:38:21;;;;;;;4.75;3.72;;;18.10;99.90;;;;;;5034996;28;20025;-92
2021/07/04 02:40:49;;;;;;;5.20;3.88;;;18.10;99.90;;;;;;5035128;28;20022;-92
2021/07/04 02:43:24;;;;;;;5.45;3.78;;;18.10;99.90;;;;;;5035570;28;20112;-92
2021/07/04 02:45:51;;;;;;;5.15;4.07;;;18.10;99.90;;;;;;5027870;28;20020;-90
2021/07/04 02:48:17;;;;;;;5.65;4.20;;;18.10;99.90;;;;;;5057592;28;20026;-88
2021/07/04 02:50:45;;;;;;;6.05;4.60;;;18.10;99.90;;;;;;5037646;28;20501;-91
2021/07/04 02:53:14;;;;;;;6.22;4.35;;;18.10;99.90;;;;;;5037765;28;20077;-92
2021/07/04 02:55:42;;;;;;;4.80;3.88;;;18.10;99.90;;;;;;5057757;28;20041;-91
2021/07/04 02:58:09;;;;;;;5.38;4.22;;;18.10;99.90;;;;;;5058388;28;20017;-91
2021/07/04 03:00:35;;;;;;;6.00;4.25;;;18.10;99.90;;;;;;5058602;28;20080;-92
2021/07/04 03:03:01;;;;;;;5.28;4.35;;;18.10;99.90;;;;;;5057499;28;20022;-91
2021/07/04 03:05:26;;;;;;;5.30;4.35;;;18.10;99.90;;;;;;5056891;28;20009;-91
2021/07/04 03:07:55;;;;;;;5.55;4.50;;;18.10;99.90;;;;;;5049776;28;20036;-91
2021/07/04 03:10:23;;;;;;;5.03;4.00;;;18.10;99.90;;;;;;5034098;28;20454;-91
2021/07/04 03:12:49;;;;;;;6.22;4.45;;;18.10;99.90;;;;;;5034057;28;20026;-90
2021/07/04 03:15:19;;;;;;;6.18;4.32;;;18.10;99.90;;;;;;5033353;28;20401;-91
2021/07/04 03:17:45;;;;;;;6.55;4.63;;;18.10;99.90;;;;;;5035331;28;20029;-90
2021/07/04 03:20:12;;;;;;;5.15;4.15;;;18.10;99.90;;;;;;5033084;28;20030;-90
2021/07/04 03:22:40;;;;;;;5.47;4.40;;;18.10;99.90;;;;;;5034334;28;20091;-91
2021/07/04 03:25:07;;;;;;;5.05;4.15;;;18.10;99.90;;;;;;5034158;28;20033;-91
2021/07/04 03:27:34;;;;;;;5.22;4.40;;;18.10;99.90;;;;;;5033973;28;20042;-90
2021/07/04 03:30:01;;;;;;;5.90;4.80;;;18.10;99.90;;;;;;5035241;28;20489;-91
2021/07/04 03:32:27;;;;;;;5.40;4.65;;;18.10;99.90;;;;;;5033709;28;20413;-90
2021/07/04 03:34:53;;;;;;;5.55;4.13;;;18.00;99.90;;;;;;5033694;28;20028;-90
2021/07/04 03:37:19;;;;;;;6.05;4.88;;;18.00;99.90;;;;;;5035097;28;20033;-91
2021/07/04 03:39:46;;;;;;;6.65;5.22;;;18.10;99.90;;;;;;5033495;28;20033;-91
2021/07/04 03:42:11;;;;;;;6.95;5.38;;;18.00;99.90;;;;;;5033072;28;20493;-90
2021/07/04 03:44:37;;;;;;;7.03;5.70;;;18.00;99.90;;;;;;5033710;28;20101;-90
2021/07/04 03:47:03;;;;;;;6.68;5.65;;;18.00;99.90;;;;;;5035023;28;20036;-89
2021/07/04 03:49:30;;;;;;;6.68;5.80;;;18.00;99.90;;;;;;5032936;28;20025;-91
2021/07/04 03:51:57;;;;;;;8.25;6.13;;;18.00;99.90;;;;;;5033066;28;20053;-89
2021/07/04 03:54:23;;;;;;;7.95;6.40;;;18.00;99.90;;;;;;5033186;28;20477;-90
2021/07/04 03:56:48;;;;;;;9.50;6.57;;;18.00;99.90;;;;;;5032914;28;20022;-90
2021/07/04 03:59:14;;;;;;;7.55;6.22;;;18.00;99.90;;;;;;5033806;28;20061;-90
2021/07/04 04:01:40;;;;;;;8.73;6.72;;;18.10;99.90;;;;;;5049871;28;20367;-89
2021/07/04 04:04:05;;;;;;;8.80;7.57;;;18.10;99.90;;;;;;5034797;28;20025;-90
2021/07/04 04:06:32;;;;;;;8.90;6.70;;;18.10;99.90;;;;;;5034636;28;20041;-89
2021/07/04 04:08:58;;;;;;;8.75;6.95;;;18.00;99.90;;;;;;5033635;28;20053;-90
2021/07/04 04:11:23;;;;;;;10.13;6.93;;;18.00;99.90;;;;;;5033117;28;20021;-90
2021/07/04 04:13:52;;;;;;;9.30;6.72;;;18.00;99.90;;;;;;5033315;28;20026;-91
2021/07/04 04:16:18;;;;;;;7.75;6.53;;;18.00;99.90;;;;;;5036228;28;20021;-90
2021/07/04 04:18:44;;;;;;;9.15;7.28;;;18.00;99.90;;;;;;5054662;28;20461;-90
2021/07/04 04:21:10;;;;;;;9.38;6.82;;;18.00;99.90;;;;;;5036848;28;20346;-89
2021/07/04 04:23:36;;;;;;;9.00;6.45;;;18.00;99.90;;;;;;5038909;28;20033;-90
2021/07/04 04:26:04;;;;;;;7.93;6.60;;;18.00;99.90;;;;;;5047367;28;20021;-90
2021/07/04 04:28:31;;;;;;;9.23;7.10;;;18.00;99.90;;;;;;5036525;28;20040;-90
2021/07/04 04:30:57;;;;;;;8.82;7.50;;;18.10;99.90;;;;;;5036625;28;20370;-90
2021/07/04 04:33:24;;;;;;;10.88;7.50;;;18.10;99.90;;;;;;5069873;28;20029;-90
2021/07/04 04:35:51;;;;;;;9.43;7.72;;;18.10;99.90;;;;;;5079593;28;20028;-87
2021/07/04 04:38:17;;;;;;;8.73;7.32;;;18.10;99.90;;;;;;5047941;28;20108;-90
2021/07/04 04:40:43;;;;;;;9.02;7.60;;;18.10;99.90;;;;;;5041142;28;20064;-90
2021/07/04 04:43:21;;;;;;;;;;;;;;;;;;;;;
2021/07/04 04:45:47;;;;;;;10.88;7.57;;;18.10;99.90;;;;;;5055167;28;20495;-90
2021/07/04 04:48:14;;;;;;;10.43;8.85;;;18.10;99.90;;;;;;5040027;28;20120;-92
2021/07/04 04:50:39;;;;;;;9.40;7.60;;;18.10;99.90;;;;;;5040384;28;20031;-91
2021/07/04 04:53:07;;;;;;;8.50;7.13;;;18.10;99.90;;;;;;5039870;28;20080;-91
2021/07/04 04:55:34;;;;;;;9.20;7.80;;;18.10;99.90;;;;;;5023160;28;20029;-91
2021/07/04 04:58:00;;;;;;;10.07;8.75;;;18.20;99.90;;;;;;5040252;28;20120;-90
2021/07/04 05:00:25;;;;;;;9.70;8.57;;;18.20;99.90;;;;;;5039476;28;20068;-90
2021/07/04 05:02:51;;;;;;;9.38;8.00;;;18.30;99.90;;;;;;5023319;28;20025;-90
2021/07/04 05:05:17;;;;;;;11.10;8.70;;;18.30;99.90;;;;;;5039717;28;20025;-90
2021/07/04 05:07:42;;;;;;;9.02;8.02;;;18.20;99.90;;;;;;5039653;28;20186;-90
2021/07/04 05:10:09;;;;;;;9.35;8.18;;;18.20;99.90;;;;;;5039482;28;20373;-91
2021/07/04 05:12:35;;;;;;;8.88;7.40;;;18.20;99.90;;;;;;5039649;28;20056;-91
2021/07/04 05:15:04;;;;;;;10.38;8.05;;;18.30;99.90;;;;;;5022526;28;20206;-90
2021/07/04 05:17:30;;;;;;;9.40;8.32;;;18.20;99.90;;;;;;5056461;28;20484;-91
2021/07/04 05:19:56;;;;;;;9.32;8.15;;;18.20;99.90;;;;;;5057482;28;20099;-91
2021/07/04 05:22:22;;;;;;;9.48;8.48;;;18.20;99.90;;;;;;5038616;28;20031;-91
2021/07/04 05:24:47;;;;;;;10.32;8.55;;;18.30;99.90;;;;;;5056836;28;20159;-91
2021/07/04 05:27:16;;;;;;;9.65;8.65;;;18.30;99.90;;;;;;5039209;28;20473;-91
2021/07/04 05:29:42;;;;;;;10.40;9.27;;;18.40;99.90;;;;;;5039512;28;20029;-91
2021/07/04 05:32:10;;;;;;;10.90;9.27;;;18.40;99.90;;;;;;5057133;28;20037;-91
2021/07/04 05:34:36;;;;;;;13.70;12.20;;;18.50;99.90;;;;;;5038816;28;20024;-91
2021/07/04 05:37:02;;;;;;;17.73;15.63;;;18.50;99.90;;;;;;5056712;28;20377;-90
2021/07/04 05:39:38;;;;;;;14.82;13.13;;;18.40;99.90;;;;;;5039516;28;20124;-91
2021/07/04 05:42:09;;;;;;;17.65;15.20;;;18.40;99.90;;;;;;5056925;28;20075;-92
2021/07/04 05:44:52;;;;;;;19.85;15.73;;;18.40;99.90;;;;;;5040041;28;20427;-92
2021/07/04 05:47:58;;;;;;;15.90;13.45;;;18.40;99.90;;;;;;5038849;28;20052;-93
2021/07/04 05:50:27;;;;;;;15.20;12.73;;;18.30;99.90;;;;;;5040090;28;20430;-92
2021/07/04 05:52:53;;;;;;;17.60;13.80;;;18.30;99.90;;;;;;5043478;28;20025;-90
2021/07/04 05:55:22;;;;;;;20.15;15.27;;;18.30;99.90;;;;;;5045743;28;20032;-89
2021/07/04 05:58:03;;;;;;;21.02;15.23;;;18.30;99.90;;;;;;5064653;28;20029;-89
2021/07/04 06:00:29;;;;;;;21.20;15.48;;;18.40;99.90;;;;;;5062591;28;20036;-90
2021/07/04 06:02:54;;;;;;;19.60;14.85;;;18.40;99.90;;;;;;5027253;28;20029;-90
2021/07/04 06:05:25;;;;;;;22.10;15.80;;;18.50;99.90;;;;;;5043587;28;20024;-91
2021/07/04 06:08:00;;;;;;;20.80;15.68;;;18.60;99.90;;;;;;5057157;28;20037;-92
2021/07/04 06:10:44;;;;;;;21.35;14.95;;;18.60;99.90;;;;;;5057932;28;20155;-92
2021/07/04 06:13:38;;;;;;;18.65;14.30;;;18.70;99.90;;;;;;5057595;28;20101;-93
2021/07/04 06:16:33;;;;;;;;;;;;;;;;;;;;;
2021/07/04 06:19:06;;;;;;;18.60;14.27;;;19.00;99.90;;;;;;5057787;28;20044;-92
2021/07/04 06:24:24;;;;;;;23.73;15.88;;;19.10;99.90;;;;;;5079228;28;20085;-91
2021/07/04 06:27:21;;;;;;;23.20;16.38;;;19.20;99.90;;;;;;5029621;28;20134;-93
2021/07/04 06:30:29;;;;;;;24.48;16.88;;;19.40;99.90;;;;;;5049391;28;20045;-92
2021/07/04 06:39:02;;;;;;;22.83;17.60;;;19.30;99.90;;;;;;5050732;28;20040;-93
2021/07/04 06:42:12;;;;;;;;;;;;;;;;;;;;;
2021/07/04 06:44:57;;;;;;;;;;;;;;;;;;;;;
2021/07/04 06:47:40;;;;;;;;;;;;;;;;;;;;;
2021/07/04 06:50:15;;;;;;;33.55;22.38;;;19.10;99.90;;;;;;5039470;28;20028;-91
2021/07/04 06:52:54;;;;;;;33.33;24.15;;;19.20;99.90;;;;;;5056053;28;20199;-92
2021/07/04 06:55:51;;;;;;;35.67;24.58;;;19.40;99.90;;;;;;5056023;28;20463;-92
2021/07/04 06:58:28;;;;;;;;;;;;;;;;;;;;;
2021/07/04 07:01:57;;;;;;;;;;;;;;;;;;;;;
2021/07/04 07:04:40;;;;;;;29.55;21.10;;;19.60;99.90;;;;;;5056401;28;20346;-91
2021/07/04 07:07:18;;;;;;;27.05;20.77;;;19.60;99.90;;;;;;5038493;28;20025;-92
2021/07/04 07:10:00;;;;;;;29.40;21.83;;;19.60;99.90;;;;;;5038254;28;20473;-90
2021/07/04 07:12:29;;;;;;;30.30;22.83;;;19.60;99.90;;;;;;5039106;28;20028;-91
2021/07/04 07:15:01;;;;;;;26.52;21.13;;;19.60;99.90;;;;;;5038949;28;20055;-91
2021/07/04 07:17:35;;;;;;;29.73;23.13;;;19.60;99.90;;;;;;5055600;28;20037;-91
2021/07/04 07:20:04;;;;;;;27.45;20.40;;;19.60;99.90;;;;;;5038808;28;20025;-91
2021/07/04 07:22:32;;;;;;;32.50;23.75;;;19.60;99.90;;;;;;5038752;28;20021;-91
2021/07/04 07:25:19;;;;;;;31.75;24.13;;;19.60;99.90;;;;;;5056724;28;20072;-91
2021/07/04 07:27:48;;;;;;;28.60;22.80;;;19.60;99.90;;;;;;5044290;28;20040;-91
2021/07/04 07:30:44;;;;;;;30.65;22.55;;;19.60;99.90;;;;;;5055837;28;20046;-91
2021/07/04 07:33:21;;;;;;;26.70;21.33;;;19.60;99.90;;;;;;5055488;28;20021;-92
2021/07/04 07:35:52;;;;;;;30.40;23.00;;;19.70;99.90;;;;;;5034485;28;20033;-91
2021/07/04 07:38:29;;;;;;;30.08;23.65;;;19.70;99.90;;;;;;5038208;28;20029;-92
2021/07/04 07:40:55;;;;;;;31.52;22.95;;;19.70;99.90;;;;;;5039219;28;20017;-92
2021/07/04 07:43:21;;;;;;;29.92;22.85;;;19.70;99.90;;;;;;5038320;28;20017;-92
2021/07/04 07:46:06;;;;;;;30.90;23.13;;;19.80;99.90;;;;;;5055305;28;20032;-90
2021/07/04 07:48:34;;;;;;;31.17;22.02;;;19.80;99.90;;;;;;5038815;28;20037;-91
2021/07/04 07:51:02;;;;;;;30.50;22.02;;;19.90;99.90;;;;;;5021588;28;20461;-91
2021/07/04 07:53:57;;;;;;;32.53;23.40;;;20.00;99.90;;;;;;5037823;28;20045;-92
2021/07/04 07:56:39;;;;;;;29.88;21.63;;;20.00;99.90;;;;;;5055298;28;20033;-93
2021/07/04 07:59:14;;;;;;;30.40;20.80;;;20.10;99.90;;;;;;5040694;28;20036;-91
2021/07/04 08:01:48;;;;;;;28.23;20.90;;;20.20;99.90;;;;;;5058016;28;20029;-92
2021/07/04 08:07:24;;;;;;;30.77;23.05;;;20.20;99.90;;;;;;5077799;28;20028;-90
2021/07/04 08:10:21;;;;;;;34.35;24.75;;;20.20;99.90;;;;;;5078237;28;20017;-91
2021/07/04 08:13:05;;;;;;;;;;;;;;;;;;;;;
2021/07/04 08:15:43;;;;;;;30.15;23.33;;;20.20;99.90;;;;;;5058515;28;20473;-92
2021/07/04 08:18:47;;;;;;;26.95;21.98;;;20.20;99.90;;;;;;5042696;28;20024;-92
2021/07/04 08:25:07;;;;;;;;;;;;;;;;;;;;;
2021/07/04 08:27:42;;;;;;;;;;;;;;;;;;;;;
2021/07/04 08:30:12;;;;;;;29.38;22.13;;;21.10;99.90;;;;;;5041456;28;20044;-92
2021/07/04 08:32:58;;;;;;;;;;;;;;;;;;;;;
2021/07/04 08:35:37;;;;;;;;;;;;;;;;;;;;;
2021/07/04 08:39:08;;;;;;;;;;;;;;;;;;;;;
2021/07/04 08:42:00;;;;;;;26.00;21.70;;;21.60;99.90;;;;;;5058755;28;20025;-92
2021/07/04 08:48:00;;;;;;;23.80;19.27;;;22.00;99.90;;;;;;5057126;28;20132;-92
2021/07/04 08:50:29;;;;;;;23.38;18.52;;;22.10;99.90;;;;;;5039588;28;20021;-91
2021/07/04 08:53:13;;;;;;;;;;;;;;;;;;;;;
2021/07/04 08:55:49;;;;;;;24.05;19.55;;;22.00;99.90;;;;;;5057628;28;20167;-90
2021/07/04 08:58:41;;;;;;;21.95;18.02;;;22.00;99.90;;;;;;5038550;28;20033;-90
2021/07/04 09:01:37;;;;;;;21.02;17.63;;;22.00;99.90;;;;;;5054566;28;20086;-91
2021/07/04 09:04:40;;;;;;;;;;;;;;;;;;;;;
2021/07/04 09:07:57;;;;;;;;;;;;;;;;;;;;;
2021/07/04 09:10:32;;;;;;;19.27;15.57;;;22.00;99.90;;;;;;5054160;28;20041;-91
2021/07/04 09:13:45;;;;;;;19.52;15.95;;;22.10;99.90;;;;;;5039264;28;20017;-91
2021/07/04 09:16:46;;;;;;;18.23;14.65;;;22.30;99.90;;;;;;5049670;28;20049;-90
2021/07/04 09:19:42;;;;;;;;;;;;;;;;;;;;;
2021/07/04 09:23:09;;;;;;;19.17;16.35;;;22.60;99.90;;;;;;5056372;28;20025;-91
2021/07/04 09:25:40;;;;;;;20.88;18.13;;;22.80;99.90;;;;;;5038970;28;20025;-90
2021/07/04 09:28:52;;;;;;;21.63;17.60;;;23.00;99.90;;;;;;5055371;28;20029;-90
2021/07/04 09:31:27;;;;;;;22.65;19.70;;;23.30;99.90;;;;;;5038038;28;20283;-90
2021/07/04 09:34:20;;;;;;;;;;;;;;;;;;;;;
2021/07/04 09:36:59;;;;;;;17.70;15.65;;;23.30;99.90;;;;;;5055971;28;20037;-90
2021/07/04 09:39:30;;;;;;;17.67;14.77;;;23.50;99.90;;;;;;5056012;28;20446;-89
2021/07/04 09:42:02;;;;;;;18.05;15.00;;;23.80;99.90;;;;;;5038407;28;20025;-88
2021/07/04 09:44:34;;;;;;;22.55;18.58;;;23.90;99.90;;;;;;5054890;28;20028;-88
2021/07/04 09:47:36;;;;;;;21.65;18.23;;;24.00;99.90;;;;;;5038120;28;20124;-89
2021/07/04 09:50:04;;;;;;;18.83;16.92;;;24.70;99.90;;;;;;5054773;28;20040;-89
2021/07/04 09:52:53;;;;;;;18.98;16.98;;;25.20;99.90;;;;;;5054691;28;20055;-89
2021/07/04 09:55:36;;;;;;;17.80;15.43;;;25.10;99.90;;;;;;5055436;28;20040;-89
2021/07/04 09:58:36;;;;;;;16.02;14.13;;;24.70;99.90;;;;;;5041823;28;20041;-89
2021/07/04 10:01:02;;;;;;;16.45;14.73;;;24.90;99.90;;;;;;5062896;28;20059;-87
2021/07/04 10:03:27;;;;;;;16.77;14.80;;;24.80;99.90;;;;;;5056703;28;20021;-88
2021/07/04 10:06:22;;;;;;;16.58;14.75;;;24.60;99.90;;;;;;5056029;28;20136;-88
2021/07/04 10:09:16;;;;;;;16.98;15.18;;;24.20;99.90;;;;;;5055373;28;20039;-88
2021/07/04 10:12:18;;;;;;;19.60;16.30;;;24.00;99.90;;;;;;5028782;28;20481;-87
2021/07/04 10:15:21;;;;;;;;;;;;;;;;;;;;;
2021/07/04 10:18:20;;;;;;;15.07;13.48;;;24.60;99.90;;;;;;5035859;28;20032;-88
2021/07/04 10:21:02;;;;;;;18.83;16.83;;;25.50;99.90;;;;;;5035452;28;20028;-88
2021/07/04 10:24:01;;;;;;;;;;;;;;;;;;;;;
2021/07/04 10:26:42;;;;;;;17.10;14.48;;;25.90;99.90;;;;;;5021409;28;20022;-87
2021/07/04 10:29:13;;;;;;;14.82;13.13;;;25.40;99.90;;;;;;5016118;28;20152;-87
2021/07/04 10:31:45;;;;;;;16.67;14.27;;;25.00;99.90;;;;;;5018095;28;20041;-88
2021/07/04 10:34:44;;;;;;;16.02;14.32;;;24.90;99.90;;;;;;5034534;28;20030;-88
2021/07/04 10:37:10;;;;;;;15.18;13.00;;;24.90;99.90;;;;;;5043437;28;20030;-88
2021/07/04 10:39:36;;;;;;;13.68;12.25;;;24.70;99.90;;;;;;5038880;28;20025;-88
2021/07/04 10:42:18;;;;;;;12.93;11.63;;;24.60;99.90;;;;;;5033289;28;20087;-87
2021/07/04 10:44:51;;;;;;;12.27;11.00;;;24.60;99.90;;;;;;5034047;28;20488;-87
2021/07/04 10:47:32;;;;;;;14.68;12.32;;;24.60;99.90;;;;;;5034916;28;20067;-88
2021/07/04 10:50:36;;;;;;;14.15;12.73;;;24.50;99.90;;;;;;5019420;28;20165;-89
2021/07/04 10:53:05;;;;;;;14.35;12.63;;;24.40;99.90;;;;;;5034682;28;20358;-89
2021/07/04 10:55:34;;;;;;;13.75;12.30;;;24.40;99.90;;;;;;5032345;28;20060;-89
2021/07/04 10:58:09;;;;;;;14.05;12.55;;;24.80;99.90;;;;;;5016824;28;20478;-89
2021/07/04 11:00:39;;;;;;;14.45;12.95;;;25.30;99.90;;;;;;5033272;28;20033;-89
2021/07/04 11:03:14;;;;;;;12.38;11.13;;;25.70;99.90;;;;;;5034107;28;20402;-89
2021/07/04 11:05:40;;;;;;;13.13;11.73;;;26.60;99.90;;;;;;5033431;28;20116;-89
2021/07/04 11:08:54;;;;;;;13.95;12.18;;;27.30;99.90;;;;;;5034292;28;20588;-88
2021/07/04 11:11:31;;;;;;;13.65;11.77;;;27.60;99.90;;;;;;5021523;28;20401;-88
2021/07/04 11:14:11;;;;;;;12.63;11.02;;;27.30;99.90;;;;;;5035409;28;20043;-88
2021/07/04 11:17:18;;;;;;;13.10;11.52;;;26.90;99.90;;;;;;5052608;28;20028;-88
2021/07/04 11:20:11;;;;;;;12.00;10.75;;;26.60;99.90;;;;;;5035984;28;20369;-88
2021/07/04 11:23:02;;;;;;;12.13;10.27;;;26.30;99.90;;;;;;5054240;28;20017;-89
2021/07/04 11:25:52;;;;;;;12.05;10.65;;;26.00;99.90;;;;;;5035893;28;20627;-88
2021/07/04 11:28:20;;;;;;;12.10;10.80;;;25.80;99.90;;;;;;5053983;28;20036;-89
2021/07/04 11:31:13;;;;;;;12.55;11.25;;;25.70;99.90;;;;;;5052878;28;20029;-88
2021/07/04 11:33:53;;;;;;;12.60;10.38;;;25.70;99.90;;;;;;5053597;28;20544;-88
2021/07/04 11:36:27;;;;;;;11.95;10.70;;;25.90;99.90;;;;;;5053472;28;20025;-88
2021/07/04 11:39:18;;;;;;;12.65;11.13;;;26.40;99.90;;;;;;5036253;28;20025;-88
2021/07/04 11:41:54;;;;;;;11.63;10.43;;;26.90;99.90;;;;;;5036010;28;20116;-89
2021/07/04 11:47:20;;;;;;;12.57;11.25;;;27.80;99.90;;;;;;5059444;28;20041;-89
2021/07/04 11:49:51;;;;;;;10.73;9.30;;;28.60;99.90;;;;;;5080386;28;20041;-88
2021/07/04 11:52:20;;;;;;;10.90;8.43;;;29.00;99.90;;;;;;5061965;28;20453;-88
2021/07/04 11:55:03;;;;;;;9.90;8.43;;;29.30;99.90;;;;;;5040914;28;20091;-87
2021/07/04 11:57:48;;;;;;;8.65;7.70;;;29.10;99.90;;;;;;5043360;28;20034;-87
2021/07/04 12:00:14;;;;;;;7.10;6.40;;;28.80;99.90;;;;;;5025878;28;20384;-88
2021/07/04 12:02:51;;;;;;;6.47;5.53;;;28.60;99.90;;;;;;5039747;28;20029;-89
2021/07/04 12:05:17;;;;;;;7.00;5.72;;;28.80;99.90;;;;;;5041537;28;20056;-88
2021/07/04 12:07:47;;;;;;;8.05;6.93;;;28.80;99.90;;;;;;5039202;28;20072;-88
2021/07/04 12:10:14;;;;;;;9.65;6.97;;;28.90;99.90;;;;;;5039091;28;20037;-88
2021/07/04 12:13:12;;;;;;;;;;;;;;;;;;;;;
2021/07/04 12:15:46;;;;;;;8.65;7.75;;;29.00;99.90;;;;;;5036717;28;20068;-88
2021/07/04 12:18:21;;;;;;;8.48;7.28;;;28.80;99.90;;;;;;5037853;28;20120;-88
2021/07/04 12:21:06;;;;;;;7.90;7.10;;;28.80;99.90;;;;;;5037158;28;20049;-89
2021/07/04 12:23:52;;;;;;;8.10;6.75;;;28.70;99.90;;;;;;5036593;28;20053;-89
2021/07/04 12:26:28;;;;;;;7.88;5.88;;;28.80;99.90;;;;;;5037207;28;20026;-88
2021/07/04 12:29:03;;;;;;;5.90;4.93;;;28.80;99.90;;;;;;5018683;28;20049;-88
2021/07/04 12:32:01;;;;;;;5.68;4.82;;;28.60;99.90;;;;;;5036548;28;20053;-88
2021/07/04 12:34:54;;;;;;;;;;;;;;;;;;;;;
2021/07/04 12:37:31;;;;;;;5.97;5.05;;;28.50;99.90;;;;;;5041206;28;20089;-89
2021/07/04 12:40:11;;;;;;;5.57;4.72;;;28.40;99.90;;;;;;5048774;28;20033;-90
2021/07/04 12:43:41;;;;;;;;;;;;;;;;;;;;;
2021/07/04 12:46:27;;;;;;;7.22;4.95;;;28.20;99.90;;;;;;5015901;28;20136;-88
2021/07/04 12:48:59;;;;;;;4.65;3.90;;;28.10;99.90;;;;;;5035489;28;20397;-88
2021/07/04 12:51:48;;;;;;;4.30;3.60;;;27.90;99.90;;;;;;5019919;28;20363;-88
2021/07/04 12:55:01;;;;;;;;;;;;;;;;;;;;;
2021/07/04 12:57:36;;;;;;;5.95;4.60;;;27.50;99.90;;;;;;5036486;28;20454;-88
2021/07/04 13:00:18;;;;;;;5.28;3.80;;;27.30;99.90;;;;;;5035231;28;20034;-88
2021/07/04 13:02:47;;;;;;;4.60;3.47;;;27.20;99.90;;;;;;5034690;28;20100;-89
2021/07/04 13:05:13;;;;;;;4.60;3.67;;;27.00;99.90;;;;;;5035099;28;20424;-88
2021/07/04 13:07:45;;;;;;;5.40;4.15;;;27.00;99.90;;;;;;5034933;28;20068;-87
2021/07/04 13:10:15;;;;;;;6.57;5.20;;;27.00;99.90;;;;;;5034839;28;20048;-89
2021/07/04 13:12:41;;;;;;;6.40;5.30;;;27.00;99.90;;;;;;5035439;28;20021;-89
2021/07/04 13:15:16;;;;;;;10.70;7.70;;;26.90;99.90;;;;;;5044640;28;20045;-88
2021/07/04 13:17:59;;;;;;;;;;;;;;;;;;;;;
2021/07/04 13:20:38;;;;;;;7.68;6.85;;;26.50;99.90;;;;;;5039998;28;20376;-88
2021/07/04 13:26:02;;;;;;;8.13;6.55;;;26.40;99.90;;;;;;5041933;28;20037;-88
2021/07/04 13:28:54;;;;;;;8.40;6.43;;;26.20;99.90;;;;;;5037637;28;20500;-89
2021/07/04 13:31:22;;;;;;;7.55;6.45;;;26.10;99.90;;;;;;5037076;28;20025;-87
2021/07/04 13:33:58;;;;;;;8.38;6.50;;;26.00;99.90;;;;;;5022713;28;20029;-88
2021/07/04 13:36:27;;;;;;;7.90;6.35;;;25.90;99.90;;;;;;5040731;28;20099;-88
2021/07/04 13:39:22;;;;;;;7.70;5.88;;;25.70;99.90;;;;;;5062944;28;20021;-88
2021/07/04 13:41:50;;;;;;;6.45;5.65;;;25.70;99.90;;;;;;5054448;28;20728;-89
2021/07/04 13:44:27;;;;;;;6.28;5.53;;;25.70;99.90;;;;;;5021823;28;20032;-89
2021/07/04 13:47:05;;;;;;;;;;;;;;;;;;;;;
2021/07/04 13:49:53;;;;;;;6.53;5.57;;;25.70;99.90;;;;;;5056295;28;20029;-89
2021/07/04 13:52:27;;;;;;;7.60;5.10;;;25.60;99.90;;;;;;5023996;28;20382;-88
2021/07/04 13:55:14;;;;;;;;;;;;;;;;;;;;;
2021/07/04 13:57:53;;;;;;;7.15;5.78;;;25.40;99.90;;;;;;5052284;28;20089;-90
2021/07/04 14:00:31;;;;;;;;;;;;;;;;;;;;;
2021/07/04 14:03:03;;;;;;;7.72;6.35;;;25.20;99.90;;;;;;5040037;28;20047;-91
2021/07/04 14:05:55;;;;;;;;;;;25.10;99.90;;;;;;5022889;28;20035;-89
2021/07/04 14:08:56;;;;;;;8.13;6.35;;;25.00;99.90;;;;;;5033439;28;19978;-90
2021/07/04 14:11:29;;;;;;;9.82;7.32;;;25.00;99.90;;;;;;5037975;28;20339;-90
2021/07/04 14:16:58;;;;;;;9.50;7.47;;;24.90;99.90;;;;;;5015271;28;20046;-89
2021/07/04 14:19:40;;;;;;;8.25;7.10;;;24.70;99.90;;;;;;5014354;28;20068;-90
2021/07/04 14:22:09;;;;;;;9.97;7.80;;;24.70;99.90;;;;;;5015837;28;20041;-90